Allegheny County Airport
KAGC : now visible

Airfield :











YOU CAN JOIN US ON...

 
LOGIN :

Register | Disclaimer

   EN    FR    IT 

 









Legend :    VFR   Marginal VFR   IFR   Intensive IFR   Very Intensive IFR
Visi :
Ceiling :
>= 8 km
>= 3000ft
5 to 8 km
1000 to 3000 ft
1500m to 5 km
500 to 1000 ft
800 to 1500m
200 to 500 ft
< 800m
< 200 ft
Symbols :   Thunderstorms  Fog  Heavy snow  Heavy precipitations  Wind > 20 kt






- Airport Elevation : 1252 ft
- IATA code : AGC


KAGC - Allegheny County

CURRENT METAR :
  • 291153Z 00000KT 5SM HZ CLR 17/13 A3023 RMK AO2 SLP235 T01670133 10172 20133 51006

EXPIRED METARs :
  • 291053Z 16003KT 5SM BR CLR 15/13 A3023 RMK AO2 SLP236 T01500128
  • 290953Z 16005KT 10SM CLR 14/12 A3022 RMK AO2 SLP233 T01390117

TAF KAGC
Valid from the 29 at 12:00 until the 30 at 12:00 UTC


291131Z 2912/3012 23003KT P6SM SKC
KZOB FIR / North America



MET'MAP, your aeronautical weather chart ! - Copyright ORBIFLY December 2007 - Disclaimer

ORBIFLY MET'MAP TEAM :

Programming & Development : Alexandra Zaïnal
Original concept : Baudouin d'Aumeries
Technical & hardware support : Manuel Goepfert
Assistance : Marc-Olivier Méhu




SOURCES & CREDITS :

   NOAA       Earth
Advisory